sensor_id;sensor_type;location;lat;lon;timestamp;temperature;humidity
1055;DHT22;516;51.482;7.120;2022-08-20T00:02:55;20.00;99.90
1055;DHT22;516;51.482;7.120;2022-08-20T00:08:44;19.90;99.90
1055;DHT22;516;51.482;7.120;2022-08-20T00:14:32;20.00;99.90
1055;DHT22;516;51.482;7.120;2022-08-20T00:20:22;19.90;99.90
1055;DHT22;516;51.482;7.120;2022-08-20T00:26:12;19.70;99.90
1055;DHT22;516;51.482;7.120;2022-08-20T00:32:00;19.70;99.90
1055;DHT22;516;51.482;7.120;2022-08-20T00:37:48;19.60;99.90
1055;DHT22;516;51.482;7.120;2022-08-20T00:43:40;19.50;99.90
1055;DHT22;516;51.482;7.120;2022-08-20T00:49:31;19.60;99.90
1055;DHT22;516;51.482;7.120;2022-08-20T00:55:20;19.60;99.90
1055;DHT22;516;51.482;7.120;2022-08-20T01:01:10;19.60;99.90
1055;DHT22;516;51.482;7.120;2022-08-20T01:06:59;19.50;99.90
1055;DHT22;516;51.482;7.120;2022-08-20T01:12:47;19.50;99.90
1055;DHT22;516;51.482;7.120;2022-08-20T01:18:36;19.50;99.90
1055;DHT22;516;51.482;7.120;2022-08-20T01:27:44;19.40;99.90
1055;DHT22;516;51.482;7.120;2022-08-20T01:33:33;19.30;99.90
1055;DHT22;516;51.482;7.120;2022-08-20T01:39:24;19.30;99.90
1055;DHT22;516;51.482;7.120;2022-08-20T01:45:12;19.30;99.90
1055;DHT22;516;51.482;7.120;2022-08-20T01:51:08;19.20;99.90
1055;DHT22;516;51.482;7.120;2022-08-20T01:57:01;19.30;99.90
1055;DHT22;516;51.482;7.120;2022-08-20T02:02:49;19.30;99.90
1055;DHT22;516;51.482;7.120;2022-08-20T02:08:38;19.30;99.90
1055;DHT22;516;51.482;7.120;2022-08-20T02:14:26;19.30;99.90
1055;DHT22;516;51.482;7.120;2022-08-20T02:23:39;19.20;99.90
1055;DHT22;516;51.482;7.120;2022-08-20T02:29:27;19.10;99.90
1055;DHT22;516;51.482;7.120;2022-08-20T02:35:15;19.10;99.90
1055;DHT22;516;51.482;7.120;2022-08-20T02:38:01;19.10;99.90
1055;DHT22;516;51.482;7.120;2022-08-20T02:40:28;19.10;99.90
1055;DHT22;516;51.482;7.120;2022-08-20T02:46:17;19.10;99.90
1055;DHT22;516;51.482;7.120;2022-08-20T02:52:06;19.10;99.90
1055;DHT22;516;51.482;7.120;2022-08-20T02:57:54;19.00;99.90
1055;DHT22;516;51.482;7.120;2022-08-20T03:03:43;19.00;99.90
1055;DHT22;516;51.482;7.120;2022-08-20T03:09:31;18.90;99.90
1055;DHT22;516;51.482;7.120;2022-08-20T03:15:19;18.80;99.90
1055;DHT22;516;51.482;7.120;2022-08-20T03:24:29;18.80;99.90
1055;DHT22;516;51.482;7.120;2022-08-20T03:30:17;18.90;99.90
1055;DHT22;516;51.482;7.120;2022-08-20T03:36:06;18.90;99.90
1055;DHT22;516;51.482;7.120;2022-08-20T03:41:54;18.90;99.90
1055;DHT22;516;51.482;7.120;2022-08-20T03:47:42;18.80;99.90
1055;DHT22;516;51.482;7.120;2022-08-20T03:53:30;18.80;99.90
1055;DHT22;516;51.482;7.120;2022-08-20T03:59:18;18.80;99.90
1055;DHT22;516;51.482;7.120;2022-08-20T04:05:06;18.70;99.90
1055;DHT22;516;51.482;7.120;2022-08-20T04:10:55;18.70;99.90
1055;DHT22;516;51.482;7.120;2022-08-20T04:16:45;18.50;99.90
1055;DHT22;516;51.482;7.120;2022-08-20T04:22:23;18.40;99.90
1055;DHT22;516;51.482;7.120;2022-08-20T04:28:15;18.50;99.90
1055;DHT22;516;51.482;7.120;2022-08-20T04:34:04;18.30;99.90
1055;DHT22;516;51.482;7.120;2022-08-20T04:39:54;18.30;99.90
1055;DHT22;516;51.482;7.120;2022-08-20T04:46:04;18.40;99.90
1055;DHT22;516;51.482;7.120;2022-08-20T04:51:53;18.50;99.90
1055;DHT22;516;51.482;7.120;2022-08-20T04:57:40;18.50;99.90
1055;DHT22;516;51.482;7.120;2022-08-20T05:03:29;18.60;99.90
1055;DHT22;516;51.482;7.120;2022-08-20T05:09:17;18.70;99.90
1055;DHT22;516;51.482;7.120;2022-08-20T05:15:05;18.90;99.90
1055;DHT22;516;51.482;7.120;2022-08-20T05:24:33;19.20;99.90
1055;DHT22;516;51.482;7.120;2022-08-20T05:30:20;19.10;99.90
1055;DHT22;516;51.482;7.120;2022-08-20T05:36:08;19.10;99.90
1055;DHT22;516;51.482;7.120;2022-08-20T05:41:55;19.00;99.90
1055;DHT22;516;51.482;7.120;2022-08-20T05:47:43;19.10;99.90
1055;DHT22;516;51.482;7.120;2022-08-20T05:53:31;19.10;99.90
1055;DHT22;516;51.482;7.120;2022-08-20T05:59:19;19.00;99.90
1055;DHT22;516;51.482;7.120;2022-08-20T06:05:09;19.00;99.90
1055;DHT22;516;51.482;7.120;2022-08-20T06:10:57;19.10;99.90
1055;DHT22;516;51.482;7.120;2022-08-20T06:16:45;19.00;99.90
1055;DHT22;516;51.482;7.120;2022-08-20T06:22:25;19.20;99.90
1055;DHT22;516;51.482;7.120;2022-08-20T06:28:13;19.20;99.90
1055;DHT22;516;51.482;7.120;2022-08-20T06:34:01;19.30;99.90
1055;DHT22;516;51.482;7.120;2022-08-20T06:39:50;19.40;99.90
1055;DHT22;516;51.482;7.120;2022-08-20T06:45:38;19.50;99.90
1055;DHT22;516;51.482;7.120;2022-08-20T06:51:26;19.50;99.90
1055;DHT22;516;51.482;7.120;2022-08-20T06:57:14;19.50;99.90
1055;DHT22;516;51.482;7.120;2022-08-20T07:03:03;19.50;99.90
1055;DHT22;516;51.482;7.120;2022-08-20T07:08:51;19.50;99.90
1055;DHT22;516;51.482;7.120;2022-08-20T07:14:20;19.50;99.90
1055;DHT22;516;51.482;7.120;2022-08-20T07:26:52;19.70;99.90
1055;DHT22;516;51.482;7.120;2022-08-20T07:32:41;20.30;99.90
1055;DHT22;516;51.482;7.120;2022-08-20T07:38:30;20.50;99.90
1055;DHT22;516;51.482;7.120;2022-08-20T07:44:19;20.50;99.90
1055;DHT22;516;51.482;7.120;2022-08-20T07:50:10;21.70;99.90
1055;DHT22;516;51.482;7.120;2022-08-20T07:55:58;21.70;99.90
1055;DHT22;516;51.482;7.120;2022-08-20T08:01:46;21.90;99.90
1055;DHT22;516;51.482;7.120;2022-08-20T08:07:34;21.50;99.90
1055;DHT22;516;51.482;7.120;2022-08-20T08:13:23;21.30;99.90
1055;DHT22;516;51.482;7.120;2022-08-20T08:19:16;21.10;99.90
1055;DHT22;516;51.482;7.120;2022-08-20T08:25:04;21.70;99.90
1055;DHT22;516;51.482;7.120;2022-08-20T08:34:08;22.10;99.90
1055;DHT22;516;51.482;7.120;2022-08-20T08:39:56;21.70;99.90
1055;DHT22;516;51.482;7.120;2022-08-20T08:45:45;22.00;99.90
1055;DHT22;516;51.482;7.120;2022-08-20T08:51:40;21.40;99.90
1055;DHT22;516;51.482;7.120;2022-08-20T08:57:29;21.80;99.90
1055;DHT22;516;51.482;7.120;2022-08-20T09:09:46;21.60;99.90
1055;DHT22;516;51.482;7.120;2022-08-20T09:15:34;21.60;99.90
1055;DHT22;516;51.482;7.120;2022-08-20T09:21:22;22.50;99.90
1055;DHT22;516;51.482;7.120;2022-08-20T09:27:10;21.00;99.90
1055;DHT22;516;51.482;7.120;2022-08-20T09:32:59;20.70;99.90
1055;DHT22;516;51.482;7.120;2022-08-20T09:38:47;20.90;99.90
1055;DHT22;516;51.482;7.120;2022-08-20T09:44:36;21.90;99.90
1055;DHT22;516;51.482;7.120;2022-08-20T09:50:27;21.90;99.90
1055;DHT22;516;51.482;7.120;2022-08-20T09:56:16;22.40;99.90
1055;DHT22;516;51.482;7.120;2022-08-20T10:02:04;22.50;99.90
1055;DHT22;516;51.482;7.120;2022-08-20T10:07:52;22.30;99.90
1055;DHT22;516;51.482;7.120;2022-08-20T10:13:40;22.30;99.90
1055;DHT22;516;51.482;7.120;2022-08-20T10:19:29;23.90;99.90
1055;DHT22;516;51.482;7.120;2022-08-20T10:25:17;23.10;99.90
1055;DHT22;516;51.482;7.120;2022-08-20T10:31:07;23.40;99.90
1055;DHT22;516;51.482;7.120;2022-08-20T10:36:55;23.70;99.90
1055;DHT22;516;51.482;7.120;2022-08-20T10:42:45;22.50;99.90
1055;DHT22;516;51.482;7.120;2022-08-20T10:48:33;22.80;99.90
1055;DHT22;516;51.482;7.120;2022-08-20T10:54:20;22.60;99.90
1055;DHT22;516;51.482;7.120;2022-08-20T11:00:10;24.20;99.90
1055;DHT22;516;51.482;7.120;2022-08-20T11:05:57;22.80;99.90
1055;DHT22;516;51.482;7.120;2022-08-20T11:11:45;24.50;99.90
1055;DHT22;516;51.482;7.120;2022-08-20T11:17:39;24.80;99.90
1055;DHT22;516;51.482;7.120;2022-08-20T11:23:27;24.90;99.90
1055;DHT22;516;51.482;7.120;2022-08-20T11:39:15;23.10;99.90
1055;DHT22;516;51.482;7.120;2022-08-20T11:45:02;23.70;99.90
1055;DHT22;516;51.482;7.120;2022-08-20T11:50:49;24.20;99.90
1055;DHT22;516;51.482;7.120;2022-08-20T11:56:36;25.00;99.90
1055;DHT22;516;51.482;7.120;2022-08-20T12:02:24;24.50;99.90
1055;DHT22;516;51.482;7.120;2022-08-20T12:08:14;23.40;99.90
1055;DHT22;516;51.482;7.120;2022-08-20T12:14:02;24.90;99.90
1055;DHT22;516;51.482;7.120;2022-08-20T12:19:51;25.50;92.70
1055;DHT22;516;51.482;7.120;2022-08-20T12:25:39;26.10;96.70
1055;DHT22;516;51.482;7.120;2022-08-20T12:31:27;25.00;80.00
1055;DHT22;516;51.482;7.120;2022-08-20T12:37:18;24.50;70.90
1055;DHT22;516;51.482;7.120;2022-08-20T12:43:06;24.90;76.70
1055;DHT22;516;51.482;7.120;2022-08-20T12:48:54;24.60;68.20
1055;DHT22;516;51.482;7.120;2022-08-20T12:54:42;23.70;89.20
1055;DHT22;516;51.482;7.120;2022-08-20T13:00:34;23.50;85.00
1055;DHT22;516;51.482;7.120;2022-08-20T13:06:23;25.50;54.30
1055;DHT22;516;51.482;7.120;2022-08-20T13:12:11;25.50;44.80
1055;DHT22;516;51.482;7.120;2022-08-20T13:18:02;25.50;58.30
1055;DHT22;516;51.482;7.120;2022-08-20T13:23:50;23.90;62.60
1055;DHT22;516;51.482;7.120;2022-08-20T13:33:05;23.90;52.60
1055;DHT22;516;51.482;7.120;2022-08-20T13:38:53;23.90;55.00
1055;DHT22;516;51.482;7.120;2022-08-20T13:44:42;23.50;53.00
1055;DHT22;516;51.482;7.120;2022-08-20T13:50:30;24.20;50.20
1055;DHT22;516;51.482;7.120;2022-08-20T13:56:17;25.00;35.20
1055;DHT22;516;51.482;7.120;2022-08-20T14:02:07;25.40;32.00
1055;DHT22;516;51.482;7.120;2022-08-20T14:07:55;25.50;28.90
1055;DHT22;516;51.482;7.120;2022-08-20T14:13:42;26.50;27.90
1055;DHT22;516;51.482;7.120;2022-08-20T14:19:30;25.90;31.80
1055;DHT22;516;51.482;7.120;2022-08-20T14:25:19;25.10;36.70
1055;DHT22;516;51.482;7.120;2022-08-20T14:30:59;24.10;41.00
1055;DHT22;516;51.482;7.120;2022-08-20T14:36:47;24.50;41.70
1055;DHT22;516;51.482;7.120;2022-08-20T14:42:35;25.10;41.80
1055;DHT22;516;51.482;7.120;2022-08-20T14:48:23;25.40;38.60
1055;DHT22;516;51.482;7.120;2022-08-20T14:54:14;25.00;40.60
1055;DHT22;516;51.482;7.120;2022-08-20T15:00:04;25.30;36.60
1055;DHT22;516;51.482;7.120;2022-08-20T15:05:55;27.30;26.20
1055;DHT22;516;51.482;7.120;2022-08-20T15:11:43;24.80;25.20
1055;DHT22;516;51.482;7.120;2022-08-20T15:17:33;24.70;32.20
1055;DHT22;516;51.482;7.120;2022-08-20T15:23:21;24.70;32.10
1055;DHT22;516;51.482;7.120;2022-08-20T15:33:05;25.40;27.60
1055;DHT22;516;51.482;7.120;2022-08-20T15:38:53;25.30;25.30
1055;DHT22;516;51.482;7.120;2022-08-20T15:44:42;25.50;26.40
1055;DHT22;516;51.482;7.120;2022-08-20T16:03:30;25.10;21.20
1055;DHT22;516;51.482;7.120;2022-08-20T16:09:45;27.70;15.50
1055;DHT22;516;51.482;7.120;2022-08-20T16:15:39;25.00;19.00
1055;DHT22;516;51.482;7.120;2022-08-20T16:21:32;24.40;20.20
1055;DHT22;516;51.482;7.120;2022-08-20T16:40:54;24.60;18.70
1055;DHT22;516;51.482;7.120;2022-08-20T16:53:45;25.20;17.30
1055;DHT22;516;51.482;7.120;2022-08-20T16:59:33;27.10;12.50
1055;DHT22;516;51.482;7.120;2022-08-20T17:05:59;25.40;15.80
1055;DHT22;516;51.482;7.120;2022-08-20T17:11:47;24.80;15.40
1055;DHT22;516;51.482;7.120;2022-08-20T17:17:36;24.60;14.40
1055;DHT22;516;51.482;7.120;2022-08-20T17:23:24;24.30;13.30
1055;DHT22;516;51.482;7.120;2022-08-20T17:33:17;24.20;14.40
1055;DHT22;516;51.482;7.120;2022-08-20T17:39:27;23.80;13.80
1055;DHT22;516;51.482;7.120;2022-08-20T17:45:25;23.60;14.10
1055;DHT22;516;51.482;7.120;2022-08-20T17:51:19;23.40;15.60
1055;DHT22;516;51.482;7.120;2022-08-20T17:57:12;23.30;16.20
1055;DHT22;516;51.482;7.120;2022-08-20T18:26:43;22.40;21.20
1055;DHT22;516;51.482;7.120;2022-08-20T18:45:30;21.90;22.50
1055;DHT22;516;51.482;7.120;2022-08-20T18:51:21;21.80;25.00
1055;DHT22;516;51.482;7.120;2022-08-20T18:57:25;21.60;24.10
1055;DHT22;516;51.482;7.120;2022-08-20T19:15:20;20.90;33.40
1055;DHT22;516;51.482;7.120;2022-08-20T19:21:09;20.80;38.40
1055;DHT22;516;51.482;7.120;2022-08-20T19:27:02;20.70;36.20
1055;DHT22;516;51.482;7.120;2022-08-20T19:36:21;20.00;49.80
1055;DHT22;516;51.482;7.120;2022-08-20T19:42:30;19.80;64.50
1055;DHT22;516;51.482;7.120;2022-08-20T19:55:03;19.30;87.50
1055;DHT22;516;51.482;7.120;2022-08-20T20:01:20;19.00;94.70
1055;DHT22;516;51.482;7.120;2022-08-20T20:07:18;18.90;99.90
1055;DHT22;516;51.482;7.120;2022-08-20T20:13:26;19.20;99.90
1055;DHT22;516;51.482;7.120;2022-08-20T20:19:15;19.70;83.60
1055;DHT22;516;51.482;7.120;2022-08-20T20:31:30;19.30;91.40
1055;DHT22;516;51.482;7.120;2022-08-20T20:37:37;19.00;94.10
1055;DHT22;516;51.482;7.120;2022-08-20T20:43:32;18.90;96.20
1055;DHT22;516;51.482;7.120;2022-08-20T21:01:45;18.40;99.90
1055;DHT22;516;51.482;7.120;2022-08-20T21:07:33;18.60;99.90
1055;DHT22;516;51.482;7.120;2022-08-20T21:13:21;18.30;99.90
1055;DHT22;516;51.482;7.120;2022-08-20T21:19:09;18.10;99.90
1055;DHT22;516;51.482;7.120;2022-08-20T21:24:58;18.20;99.90
1055;DHT22;516;51.482;7.120;2022-08-20T21:30:45;18.20;99.90
1055;DHT22;516;51.482;7.120;2022-08-20T21:36:33;18.30;99.90
1055;DHT22;516;51.482;7.120;2022-08-20T21:45:46;18.10;99.90
1055;DHT22;516;51.482;7.120;2022-08-20T21:51:34;17.80;99.90
1055;DHT22;516;51.482;7.120;2022-08-20T21:57:25;17.50;99.90
1055;DHT22;516;51.482;7.120;2022-08-20T22:03:15;17.40;99.90
1055;DHT22;516;51.482;7.120;2022-08-20T22:09:03;17.20;99.90
1055;DHT22;516;51.482;7.120;2022-08-20T22:14:51;17.10;99.90
1055;DHT22;516;51.482;7.120;2022-08-20T22:20:41;16.90;99.90
1055;DHT22;516;51.482;7.120;2022-08-20T22:26:29;16.90;99.90
1055;DHT22;516;51.482;7.120;2022-08-20T22:32:18;16.90;99.90
1055;DHT22;516;51.482;7.120;2022-08-20T22:41:28;16.70;99.90
1055;DHT22;516;51.482;7.120;2022-08-20T22:47:18;17.00;99.90
1055;DHT22;516;51.482;7.120;2022-08-20T22:53:09;17.10;99.90
1055;DHT22;516;51.482;7.120;2022-08-20T22:58:58;17.30;99.90
1055;DHT22;516;51.482;7.120;2022-08-20T23:04:46;17.30;99.90
1055;DHT22;516;51.482;7.120;2022-08-20T23:10:36;17.50;99.90
1055;DHT22;516;51.482;7.120;2022-08-20T23:16:24;17.50;99.90
1055;DHT22;516;51.482;7.120;2022-08-20T23:22:12;17.50;99.90
1055;DHT22;516;51.482;7.120;2022-08-20T23:28:00;17.50;99.90
1055;DHT22;516;51.482;7.120;2022-08-20T23:33:48;17.50;99.90
1055;DHT22;516;51.482;7.120;2022-08-20T23:39:20;17.60;99.90
1055;DHT22;516;51.482;7.120;2022-08-20T23:45:08;17.80;99.90
1055;DHT22;516;51.482;7.120;2022-08-20T23:50:56;17.70;99.90
1055;DHT22;516;51.482;7.120;2022-08-20T23:56:43;17.60;99.90
